Aérodrome :
LOGIN :

S'inscrire | Disclaimer

   EN    FR    IT 

 










Légende :    VFR   VFR Marginal   IFR   IFR Intensif   IFR Très Intensif
Visi : 
Plafond : 
>= 8 km
>= 3000ft
5 à 8 km
1000 à 3000 ft
1500m à 5 km
500 à 1000 ft
800 à 1500m
200 à 500 ft
< 800m
< 200 ft
Symboles :   Orages  Brouillard  Fortes neiges  Fortes précipitations  Vent > 20 kt
SIGMETs :   Divers  Orages  Givrage  Turbulence  Onde Orograph.  Cendres Volcan.







- Altitude de l'aérodrome : 184 ft
- Code IATA : BRU


EBBR - Bruxelles

DERNIER METAR :
  • 301220Z 18007KT 150V240 CAVOK 21/10 Q1023 NOSIG

METARs EXPIRÉS :
  • 301150Z 21006KT 160V270 CAVOK 21/08 Q1024 NOSIG
  • 301120Z 24009KT CAVOK 20/09 Q1024 NOSIG
  • 301050Z 23009KT CAVOK 20/08 Q1024 NOSIG
  • 301020Z 18010KT CAVOK 19/09 Q1024 NOSIG
  • 300950Z 18009KT CAVOK 18/10 Q1025 NOSIG

TAF TAF EBBR
Valide du 30 à 12h jusqu'au 31 à 18h UTC


301101Z 3012/3118 18007KT CAVOK
Pas de NOTAMs connus pour ce terrain.



MET'MAP, la Météo Aéronautique d'un coup d'oeil ! - Copyright ORBIFLY Décembre 2007 - Disclaimer

ORBIFLY MET'MAP TEAM :

Programmation & Développement : Alexandra Zaïnal
Conception & Développement : Baudouin d'Aumeries
Co-Programmation & Développement : Marc-Olivier Méhu
Soutien technique & logistique : Manuel Goepfert

Contact : metmap@orbifly.com




SOURCES & CREDITS :

   NOAA